sensor_id;sensor_type;location;lat;lon;timestamp;P1;durP1;ratioP1;P2;durP2;ratioP2
16262;SDS011;8239;48.594;8.598;2022-11-25T00:02:00;20.60;;;3.27;;
16262;SDS011;8239;48.594;8.598;2022-11-25T00:04:27;33.20;;;3.67;;
16262;SDS011;8239;48.594;8.598;2022-11-25T00:06:58;30.90;;;3.47;;
16262;SDS011;8239;48.594;8.598;2022-11-25T00:09:25;71.43;;;4.83;;
16262;SDS011;8239;48.594;8.598;2022-11-25T00:11:52;87.80;;;5.10;;
16262;SDS011;8239;48.594;8.598;2022-11-25T00:14:19;136.47;;;7.03;;
16262;SDS011;8239;48.594;8.598;2022-11-25T00:16:48;130.50;;;6.73;;
16262;SDS011;8239;48.594;8.598;2022-11-25T00:19:15;36.63;;;3.27;;
16262;SDS011;8239;48.594;8.598;2022-11-25T00:21:42;26.77;;;3.17;;
16262;SDS011;8239;48.594;8.598;2022-11-25T00:24:09;28.63;;;3.53;;
16262;SDS011;8239;48.594;8.598;2022-11-25T00:26:39;43.57;;;4.43;;
16262;SDS011;8239;48.594;8.598;2022-11-25T00:29:07;13.30;;;3.90;;
16262;SDS011;8239;48.594;8.598;2022-11-25T00:31:37;16.47;;;4.77;;
16262;SDS011;8239;48.594;8.598;2022-11-25T00:34:08;22.13;;;4.30;;
16262;SDS011;8239;48.594;8.598;2022-11-25T00:36:37;16.70;;;4.20;;
16262;SDS011;8239;48.594;8.598;2022-11-25T00:39:06;7.63;;;4.00;;
16262;SDS011;8239;48.594;8.598;2022-11-25T00:41:35;9.47;;;4.80;;
16262;SDS011;8239;48.594;8.598;2022-11-25T00:44:20;7.97;;;4.50;;
16262;SDS011;8239;48.594;8.598;2022-11-25T00:47:04;12.00;;;4.80;;
16262;SDS011;8239;48.594;8.598;2022-11-25T00:49:34;34.50;;;5.00;;
16262;SDS011;8239;48.594;8.598;2022-11-25T00:52:02;5.30;;;3.10;;
16262;SDS011;8239;48.594;8.598;2022-11-25T00:54:30;7.23;;;2.83;;
16262;SDS011;8239;48.594;8.598;2022-11-25T00:56:57;28.27;;;3.00;;
16262;SDS011;8239;48.594;8.598;2022-11-25T00:59:24;17.07;;;3.00;;
16262;SDS011;8239;48.594;8.598;2022-11-25T01:01:52;54.53;;;4.70;;
16262;SDS011;8239;48.594;8.598;2022-11-25T01:04:19;72.57;;;6.43;;
16262;SDS011;8239;48.594;8.598;2022-11-25T01:06:48;28.87;;;3.93;;
16262;SDS011;8239;48.594;8.598;2022-11-25T01:09:15;6.93;;;3.50;;
16262;SDS011;8239;48.594;8.598;2022-11-25T01:11:42;13.53;;;3.67;;
16262;SDS011;8239;48.594;8.598;2022-11-25T01:14:09;8.23;;;3.20;;
16262;SDS011;8239;48.594;8.598;2022-11-25T01:16:37;7.80;;;3.23;;
16262;SDS011;8239;48.594;8.598;2022-11-25T01:19:04;7.40;;;3.50;;
16262;SDS011;8239;48.594;8.598;2022-11-25T01:21:32;5.67;;;3.30;;
16262;SDS011;8239;48.594;8.598;2022-11-25T01:24:01;7.43;;;3.30;;
16262;SDS011;8239;48.594;8.598;2022-11-25T01:26:30;5.87;;;3.40;;
16262;SDS011;8239;48.594;8.598;2022-11-25T01:28:59;5.50;;;3.70;;
16262;SDS011;8239;48.594;8.598;2022-11-25T01:31:27;7.83;;;3.80;;
16262;SDS011;8239;48.594;8.598;2022-11-25T01:33:57;7.23;;;3.37;;
16262;SDS011;8239;48.594;8.598;2022-11-25T01:36:25;5.17;;;3.40;;
16262;SDS011;8239;48.594;8.598;2022-11-25T01:38:53;7.20;;;3.53;;
16262;SDS011;8239;48.594;8.598;2022-11-25T01:41:23;7.87;;;3.50;;
16262;SDS011;8239;48.594;8.598;2022-11-25T01:46:48;7.73;;;3.87;;
16262;SDS011;8239;48.594;8.598;2022-11-25T01:49:20;6.70;;;3.80;;
16262;SDS011;8239;48.594;8.598;2022-11-25T01:51:58;10.60;;;4.10;;
16262;SDS011;8239;48.594;8.598;2022-11-25T01:54:30;8.37;;;3.80;;
16262;SDS011;8239;48.594;8.598;2022-11-25T01:57:02;9.17;;;4.27;;
16262;SDS011;8239;48.594;8.598;2022-11-25T01:59:35;6.67;;;4.10;;
16262;SDS011;8239;48.594;8.598;2022-11-25T02:02:05;8.80;;;4.07;;
16262;SDS011;8239;48.594;8.598;2022-11-25T02:04:33;8.40;;;4.07;;
16262;SDS011;8239;48.594;8.598;2022-11-25T02:07:06;9.10;;;3.60;;
16262;SDS011;8239;48.594;8.598;2022-11-25T02:09:36;7.17;;;3.53;;
16262;SDS011;8239;48.594;8.598;2022-11-25T02:12:07;7.27;;;3.27;;
16262;SDS011;8239;48.594;8.598;2022-11-25T02:14:35;72.80;;;5.77;;
16262;SDS011;8239;48.594;8.598;2022-11-25T02:17:02;41.10;;;5.17;;
16262;SDS011;8239;48.594;8.598;2022-11-25T02:19:31;4.97;;;3.20;;
16262;SDS011;8239;48.594;8.598;2022-11-25T02:22:09;8.63;;;3.50;;
16262;SDS011;8239;48.594;8.598;2022-11-25T02:24:46;4.63;;;3.20;;
16262;SDS011;8239;48.594;8.598;2022-11-25T02:27:21;7.03;;;3.20;;
16262;SDS011;8239;48.594;8.598;2022-11-25T02:29:48;4.53;;;3.10;;
16262;SDS011;8239;48.594;8.598;2022-11-25T02:32:19;4.73;;;3.30;;
16262;SDS011;8239;48.594;8.598;2022-11-25T02:34:48;4.63;;;3.03;;
16262;SDS011;8239;48.594;8.598;2022-11-25T02:37:16;4.73;;;3.10;;
16262;SDS011;8239;48.594;8.598;2022-11-25T02:39:46;6.73;;;2.73;;
16262;SDS011;8239;48.594;8.598;2022-11-25T02:42:14;26.80;;;4.67;;
16262;SDS011;8239;48.594;8.598;2022-11-25T02:44:47;6.77;;;2.83;;
16262;SDS011;8239;48.594;8.598;2022-11-25T02:47:14;4.43;;;2.93;;
16262;SDS011;8239;48.594;8.598;2022-11-25T02:49:42;11.50;;;3.43;;
16262;SDS011;8239;48.594;8.598;2022-11-25T02:52:09;77.17;;;5.93;;
16262;SDS011;8239;48.594;8.598;2022-11-25T02:54:36;195.77;;;9.63;;
16262;SDS011;8239;48.594;8.598;2022-11-25T02:57:03;81.27;;;8.90;;
16262;SDS011;8239;48.594;8.598;2022-11-25T02:59:30;41.63;;;7.73;;
16262;SDS011;8239;48.594;8.598;2022-11-25T03:01:58;31.77;;;5.83;;
16262;SDS011;8239;48.594;8.598;2022-11-25T03:04:25;25.63;;;5.80;;
16262;SDS011;8239;48.594;8.598;2022-11-25T03:06:52;104.73;;;8.07;;
16262;SDS011;8239;48.594;8.598;2022-11-25T03:09:19;50.03;;;5.37;;
16262;SDS011;8239;48.594;8.598;2022-11-25T03:11:46;160.87;;;10.07;;
16262;SDS011;8239;48.594;8.598;2022-11-25T03:14:30;53.00;;;5.83;;
16262;SDS011;8239;48.594;8.598;2022-11-25T03:16:59;45.37;;;5.77;;
16262;SDS011;8239;48.594;8.598;2022-11-25T03:19:26;65.97;;;6.93;;
16262;SDS011;8239;48.594;8.598;2022-11-25T03:21:53;66.40;;;6.53;;
16262;SDS011;8239;48.594;8.598;2022-11-25T03:24:20;16.80;;;4.77;;
16262;SDS011;8239;48.594;8.598;2022-11-25T03:26:47;18.03;;;4.77;;
16262;SDS011;8239;48.594;8.598;2022-11-25T03:29:14;9.80;;;3.83;;
16262;SDS011;8239;48.594;8.598;2022-11-25T03:31:41;5.13;;;3.20;;
16262;SDS011;8239;48.594;8.598;2022-11-25T03:34:09;8.60;;;3.93;;
16262;SDS011;8239;48.594;8.598;2022-11-25T03:36:36;7.13;;;3.60;;
16262;SDS011;8239;48.594;8.598;2022-11-25T03:39:04;4.90;;;3.30;;
16262;SDS011;8239;48.594;8.598;2022-11-25T03:41:31;7.10;;;3.37;;
16262;SDS011;8239;48.594;8.598;2022-11-25T03:43:58;5.77;;;3.53;;
16262;SDS011;8239;48.594;8.598;2022-11-25T03:46:25;6.70;;;3.37;;
16262;SDS011;8239;48.594;8.598;2022-11-25T03:48:52;4.63;;;2.83;;
16262;SDS011;8239;48.594;8.598;2022-11-25T03:51:21;13.80;;;4.30;;
16262;SDS011;8239;48.594;8.598;2022-11-25T03:53:48;40.83;;;5.67;;
16262;SDS011;8239;48.594;8.598;2022-11-25T03:56:15;24.10;;;4.80;;
16262;SDS011;8239;48.594;8.598;2022-11-25T03:58:42;6.30;;;3.70;;
16262;SDS011;8239;48.594;8.598;2022-11-25T04:01:09;4.47;;;3.00;;
16262;SDS011;8239;48.594;8.598;2022-11-25T04:03:36;5.50;;;3.17;;
16262;SDS011;8239;48.594;8.598;2022-11-25T04:06:03;3.40;;;2.80;;
16262;SDS011;8239;48.594;8.598;2022-11-25T04:08:31;3.67;;;2.50;;
16262;SDS011;8239;48.594;8.598;2022-11-25T04:10:58;4.47;;;2.37;;
16262;SDS011;8239;48.594;8.598;2022-11-25T04:13:25;4.93;;;2.80;;
16262;SDS011;8239;48.594;8.598;2022-11-25T04:15:51;6.03;;;2.83;;
16262;SDS011;8239;48.594;8.598;2022-11-25T04:18:18;5.37;;;3.00;;
16262;SDS011;8239;48.594;8.598;2022-11-25T04:20:46;5.03;;;2.93;;
16262;SDS011;8239;48.594;8.598;2022-11-25T04:23:13;3.43;;;2.30;;
16262;SDS011;8239;48.594;8.598;2022-11-25T04:25:41;5.07;;;2.10;;
16262;SDS011;8239;48.594;8.598;2022-11-25T04:28:08;4.37;;;2.53;;
16262;SDS011;8239;48.594;8.598;2022-11-25T04:30:35;5.83;;;2.93;;
16262;SDS011;8239;48.594;8.598;2022-11-25T04:33:03;4.47;;;2.60;;
16262;SDS011;8239;48.594;8.598;2022-11-25T04:35:30;5.20;;;2.73;;
16262;SDS011;8239;48.594;8.598;2022-11-25T04:37:57;3.90;;;2.47;;
16262;SDS011;8239;48.594;8.598;2022-11-25T04:40:25;5.23;;;2.20;;
16262;SDS011;8239;48.594;8.598;2022-11-25T04:42:53;4.40;;;3.00;;
16262;SDS011;8239;48.594;8.598;2022-11-25T04:45:20;5.17;;;2.93;;
16262;SDS011;8239;48.594;8.598;2022-11-25T04:47:47;6.07;;;3.20;;
16262;SDS011;8239;48.594;8.598;2022-11-25T04:50:16;42.07;;;4.67;;
16262;SDS011;8239;48.594;8.598;2022-11-25T04:52:44;10.83;;;3.20;;
16262;SDS011;8239;48.594;8.598;2022-11-25T04:55:11;5.23;;;3.17;;
16262;SDS011;8239;48.594;8.598;2022-11-25T04:57:38;10.70;;;6.13;;
16262;SDS011;8239;48.594;8.598;2022-11-25T05:00:08;11.53;;;6.67;;
16262;SDS011;8239;48.594;8.598;2022-11-25T05:02:35;12.23;;;6.47;;
16262;SDS011;8239;48.594;8.598;2022-11-25T05:05:02;6.27;;;3.43;;
16262;SDS011;8239;48.594;8.598;2022-11-25T05:07:30;6.63;;;3.43;;
16262;SDS011;8239;48.594;8.598;2022-11-25T05:09:57;9.43;;;5.00;;
16262;SDS011;8239;48.594;8.598;2022-11-25T05:12:25;9.80;;;4.83;;
16262;SDS011;8239;48.594;8.598;2022-11-25T05:14:54;6.87;;;3.70;;
16262;SDS011;8239;48.594;8.598;2022-11-25T05:17:23;5.90;;;3.73;;
16262;SDS011;8239;48.594;8.598;2022-11-25T05:19:51;4.73;;;2.90;;
16262;SDS011;8239;48.594;8.598;2022-11-25T05:22:19;5.73;;;3.23;;
16262;SDS011;8239;48.594;8.598;2022-11-25T05:24:48;83.27;;;15.30;;
16262;SDS011;8239;48.594;8.598;2022-11-25T05:27:15;30.53;;;7.77;;
16262;SDS011;8239;48.594;8.598;2022-11-25T05:29:42;9.23;;;6.17;;
16262;SDS011;8239;48.594;8.598;2022-11-25T05:32:10;20.73;;;5.33;;
16262;SDS011;8239;48.594;8.598;2022-11-25T05:34:38;7.07;;;3.40;;
16262;SDS011;8239;48.594;8.598;2022-11-25T05:37:06;7.07;;;3.80;;
16262;SDS011;8239;48.594;8.598;2022-11-25T05:39:34;4.83;;;2.40;;
16262;SDS011;8239;48.594;8.598;2022-11-25T05:42:01;3.83;;;1.80;;
16262;SDS011;8239;48.594;8.598;2022-11-25T05:44:28;3.53;;;2.63;;
16262;SDS011;8239;48.594;8.598;2022-11-25T05:46:56;4.90;;;3.50;;
16262;SDS011;8239;48.594;8.598;2022-11-25T05:49:23;3.50;;;2.80;;
16262;SDS011;8239;48.594;8.598;2022-11-25T05:51:51;4.37;;;3.07;;
16262;SDS011;8239;48.594;8.598;2022-11-25T05:54:21;4.07;;;2.43;;
16262;SDS011;8239;48.594;8.598;2022-11-25T05:56:50;5.10;;;2.47;;
16262;SDS011;8239;48.594;8.598;2022-11-25T05:59:31;6.10;;;2.50;;
16262;SDS011;8239;48.594;8.598;2022-11-25T06:01:58;5.87;;;3.20;;
16262;SDS011;8239;48.594;8.598;2022-11-25T06:04:25;4.13;;;3.20;;
16262;SDS011;8239;48.594;8.598;2022-11-25T06:06:54;9.37;;;2.77;;
16262;SDS011;8239;48.594;8.598;2022-11-25T06:09:21;5.27;;;2.43;;
16262;SDS011;8239;48.594;8.598;2022-11-25T06:11:48;2.93;;;2.50;;
16262;SDS011;8239;48.594;8.598;2022-11-25T06:14:20;3.50;;;2.53;;
16262;SDS011;8239;48.594;8.598;2022-11-25T06:16:47;3.00;;;2.30;;
16262;SDS011;8239;48.594;8.598;2022-11-25T06:19:14;2.40;;;2.20;;
16262;SDS011;8239;48.594;8.598;2022-11-25T06:21:41;4.50;;;2.40;;
16262;SDS011;8239;48.594;8.598;2022-11-25T06:24:09;4.17;;;2.53;;
16262;SDS011;8239;48.594;8.598;2022-11-25T06:26:36;4.93;;;2.50;;
16262;SDS011;8239;48.594;8.598;2022-11-25T06:29:03;4.17;;;2.47;;
16262;SDS011;8239;48.594;8.598;2022-11-25T06:31:31;5.03;;;2.80;;
16262;SDS011;8239;48.594;8.598;2022-11-25T06:33:58;6.23;;;3.43;;
16262;SDS011;8239;48.594;8.598;2022-11-25T06:36:24;3.97;;;2.80;;
16262;SDS011;8239;48.594;8.598;2022-11-25T06:38:52;6.53;;;3.13;;
16262;SDS011;8239;48.594;8.598;2022-11-25T06:41:21;4.60;;;3.10;;
16262;SDS011;8239;48.594;8.598;2022-11-25T06:43:48;6.83;;;3.57;;
16262;SDS011;8239;48.594;8.598;2022-11-25T06:46:16;5.57;;;2.83;;
16262;SDS011;8239;48.594;8.598;2022-11-25T06:48:44;4.97;;;2.80;;
16262;SDS011;8239;48.594;8.598;2022-11-25T06:51:12;3.60;;;2.60;;
16262;SDS011;8239;48.594;8.598;2022-11-25T06:53:40;9.33;;;6.50;;
16262;SDS011;8239;48.594;8.598;2022-11-25T06:56:09;7.53;;;3.80;;
16262;SDS011;8239;48.594;8.598;2022-11-25T06:58:39;11.30;;;5.33;;
16262;SDS011;8239;48.594;8.598;2022-11-25T07:01:09;5.70;;;4.17;;
16262;SDS011;8239;48.594;8.598;2022-11-25T07:03:38;6.57;;;3.93;;
16262;SDS011;8239;48.594;8.598;2022-11-25T07:06:06;4.47;;;4.07;;
16262;SDS011;8239;48.594;8.598;2022-11-25T07:08:33;9.00;;;7.17;;
16262;SDS011;8239;48.594;8.598;2022-11-25T07:11:01;7.90;;;7.10;;
16262;SDS011;8239;48.594;8.598;2022-11-25T07:13:29;5.30;;;4.80;;
16262;SDS011;8239;48.594;8.598;2022-11-25T07:16:00;6.60;;;3.83;;
16262;SDS011;8239;48.594;8.598;2022-11-25T07:18:28;5.17;;;3.47;;
16262;SDS011;8239;48.594;8.598;2022-11-25T07:21:00;4.93;;;3.33;;
16262;SDS011;8239;48.594;8.598;2022-11-25T07:23:28;3.87;;;3.50;;
16262;SDS011;8239;48.594;8.598;2022-11-25T07:25:59;3.83;;;3.40;;
16262;SDS011;8239;48.594;8.598;2022-11-25T07:28:27;4.23;;;3.50;;
16262;SDS011;8239;48.594;8.598;2022-11-25T07:30:54;4.93;;;3.20;;
16262;SDS011;8239;48.594;8.598;2022-11-25T07:33:22;4.03;;;2.60;;
16262;SDS011;8239;48.594;8.598;2022-11-25T07:35:49;3.33;;;2.60;;
16262;SDS011;8239;48.594;8.598;2022-11-25T07:38:16;7.10;;;4.57;;
16262;SDS011;8239;48.594;8.598;2022-11-25T07:40:43;7.50;;;6.73;;
16262;SDS011;8239;48.594;8.598;2022-11-25T07:43:10;4.30;;;3.60;;
16262;SDS011;8239;48.594;8.598;2022-11-25T07:45:37;5.47;;;3.23;;
16262;SDS011;8239;48.594;8.598;2022-11-25T07:48:04;16.53;;;15.13;;
16262;SDS011;8239;48.594;8.598;2022-11-25T07:53:02;9.37;;;5.00;;
16262;SDS011;8239;48.594;8.598;2022-11-25T07:55:29;7.27;;;6.60;;
16262;SDS011;8239;48.594;8.598;2022-11-25T07:57:56;8.47;;;7.67;;
16262;SDS011;8239;48.594;8.598;2022-11-25T08:00:26;7.27;;;6.30;;
16262;SDS011;8239;48.594;8.598;2022-11-25T08:02:53;5.40;;;3.60;;
16262;SDS011;8239;48.594;8.598;2022-11-25T08:05:20;2.97;;;2.77;;
16262;SDS011;8239;48.594;8.598;2022-11-25T08:07:48;3.83;;;3.30;;
16262;SDS011;8239;48.594;8.598;2022-11-25T08:10:15;5.73;;;5.13;;
16262;SDS011;8239;48.594;8.598;2022-11-25T08:12:42;7.00;;;5.40;;
16262;SDS011;8239;48.594;8.598;2022-11-25T08:15:09;22.10;;;14.20;;
16262;SDS011;8239;48.594;8.598;2022-11-25T08:17:36;9.17;;;6.60;;
16262;SDS011;8239;48.594;8.598;2022-11-25T08:20:04;40.17;;;6.33;;
16262;SDS011;8239;48.594;8.598;2022-11-25T08:22:32;6.87;;;6.17;;
16262;SDS011;8239;48.594;8.598;2022-11-25T08:25:00;4.43;;;4.03;;
16262;SDS011;8239;48.594;8.598;2022-11-25T08:27:27;5.57;;;3.80;;
16262;SDS011;8239;48.594;8.598;2022-11-25T08:29:54;4.77;;;3.80;;
16262;SDS011;8239;48.594;8.598;2022-11-25T08:32:21;5.73;;;2.93;;
16262;SDS011;8239;48.594;8.598;2022-11-25T08:34:48;5.83;;;2.50;;
16262;SDS011;8239;48.594;8.598;2022-11-25T08:37:15;3.67;;;2.10;;
16262;SDS011;8239;48.594;8.598;2022-11-25T08:39:42;2.30;;;1.80;;
16262;SDS011;8239;48.594;8.598;2022-11-25T08:42:10;3.43;;;2.20;;
16262;SDS011;8239;48.594;8.598;2022-11-25T08:44:37;3.77;;;2.37;;
16262;SDS011;8239;48.594;8.598;2022-11-25T08:47:04;3.90;;;2.87;;
16262;SDS011;8239;48.594;8.598;2022-11-25T08:49:31;6.83;;;3.70;;
16262;SDS011;8239;48.594;8.598;2022-11-25T08:51:58;7.47;;;4.00;;
16262;SDS011;8239;48.594;8.598;2022-11-25T08:54:26;9.10;;;7.60;;
16262;SDS011;8239;48.594;8.598;2022-11-25T08:56:53;5.20;;;3.37;;
16262;SDS011;8239;48.594;8.598;2022-11-25T08:59:21;5.93;;;2.63;;
16262;SDS011;8239;48.594;8.598;2022-11-25T09:01:49;5.83;;;2.87;;
16262;SDS011;8239;48.594;8.598;2022-11-25T09:04:16;4.00;;;3.10;;
16262;SDS011;8239;48.594;8.598;2022-11-25T09:06:43;4.33;;;3.53;;
16262;SDS011;8239;48.594;8.598;2022-11-25T09:09:10;5.43;;;4.37;;
16262;SDS011;8239;48.594;8.598;2022-11-25T09:11:37;4.13;;;3.57;;
16262;SDS011;8239;48.594;8.598;2022-11-25T09:14:04;3.77;;;3.40;;
16262;SDS011;8239;48.594;8.598;2022-11-25T09:16:32;6.80;;;4.03;;
16262;SDS011;8239;48.594;8.598;2022-11-25T09:18:59;5.43;;;4.53;;
16262;SDS011;8239;48.594;8.598;2022-11-25T09:21:26;3.80;;;3.27;;
16262;SDS011;8239;48.594;8.598;2022-11-25T09:23:53;3.63;;;3.00;;
16262;SDS011;8239;48.594;8.598;2022-11-25T09:26:21;2.23;;;1.50;;
16262;SDS011;8239;48.594;8.598;2022-11-25T09:28:49;2.03;;;1.90;;
16262;SDS011;8239;48.594;8.598;2022-11-25T09:31:17;2.70;;;2.10;;
16262;SDS011;8239;48.594;8.598;2022-11-25T09:33:45;1.90;;;1.70;;
16262;SDS011;8239;48.594;8.598;2022-11-25T09:36:13;2.63;;;1.70;;
16262;SDS011;8239;48.594;8.598;2022-11-25T09:38:41;2.23;;;2.03;;
16262;SDS011;8239;48.594;8.598;2022-11-25T09:41:14;3.27;;;1.80;;
16262;SDS011;8239;48.594;8.598;2022-11-25T09:44:07;1.87;;;1.60;;
16262;SDS011;8239;48.594;8.598;2022-11-25T09:47:05;2.27;;;1.70;;
16262;SDS011;8239;48.594;8.598;2022-11-25T09:49:50;2.73;;;2.20;;
16262;SDS011;8239;48.594;8.598;2022-11-25T09:52:29;3.80;;;2.53;;
16262;SDS011;8239;48.594;8.598;2022-11-25T09:55:03;7.73;;;4.30;;
16262;SDS011;8239;48.594;8.598;2022-11-25T09:57:35;5.23;;;4.00;;
16262;SDS011;8239;48.594;8.598;2022-11-25T10:00:18;7.30;;;4.70;;
16262;SDS011;8239;48.594;8.598;2022-11-25T10:02:49;7.40;;;4.00;;
16262;SDS011;8239;48.594;8.598;2022-11-25T10:05:27;4.13;;;3.40;;
16262;SDS011;8239;48.594;8.598;2022-11-25T10:07:59;3.57;;;2.60;;
16262;SDS011;8239;48.594;8.598;2022-11-25T10:10:35;5.87;;;4.80;;
16262;SDS011;8239;48.594;8.598;2022-11-25T10:13:07;5.03;;;3.73;;
16262;SDS011;8239;48.594;8.598;2022-11-25T10:15:43;4.83;;;4.07;;
16262;SDS011;8239;48.594;8.598;2022-11-25T10:18:15;3.80;;;3.10;;
16262;SDS011;8239;48.594;8.598;2022-11-25T10:20:48;4.03;;;3.30;;
16262;SDS011;8239;48.594;8.598;2022-11-25T10:23:18;2.87;;;2.50;;
16262;SDS011;8239;48.594;8.598;2022-11-25T10:25:49;4.03;;;3.10;;
16262;SDS011;8239;48.594;8.598;2022-11-25T10:28:19;4.37;;;3.50;;
16262;SDS011;8239;48.594;8.598;2022-11-25T10:30:48;4.33;;;3.60;;
16262;SDS011;8239;48.594;8.598;2022-11-25T10:33:20;5.67;;;3.63;;
16262;SDS011;8239;48.594;8.598;2022-11-25T10:35:51;5.87;;;4.07;;
16262;SDS011;8239;48.594;8.598;2022-11-25T10:38:22;6.50;;;5.50;;
16262;SDS011;8239;48.594;8.598;2022-11-25T10:40:54;9.27;;;5.63;;
16262;SDS011;8239;48.594;8.598;2022-11-25T10:43:22;5.57;;;4.03;;
16262;SDS011;8239;48.594;8.598;2022-11-25T10:45:50;5.87;;;4.70;;
16262;SDS011;8239;48.594;8.598;2022-11-25T10:48:34;5.00;;;4.10;;
16262;SDS011;8239;48.594;8.598;2022-11-25T10:51:17;4.70;;;4.00;;
16262;SDS011;8239;48.594;8.598;2022-11-25T10:54:13;6.10;;;3.90;;
16262;SDS011;8239;48.594;8.598;2022-11-25T10:56:43;5.63;;;3.90;;
16262;SDS011;8239;48.594;8.598;2022-11-25T10:59:11;5.67;;;4.00;;
16262;SDS011;8239;48.594;8.598;2022-11-25T11:01:39;5.63;;;3.73;;
16262;SDS011;8239;48.594;8.598;2022-11-25T11:04:09;5.23;;;3.67;;
16262;SDS011;8239;48.594;8.598;2022-11-25T11:06:43;5.40;;;3.57;;
16262;SDS011;8239;48.594;8.598;2022-11-25T11:09:30;5.27;;;2.60;;
16262;SDS011;8239;48.594;8.598;2022-11-25T11:12:06;4.57;;;2.10;;
16262;SDS011;8239;48.594;8.598;2022-11-25T11:14:40;3.50;;;1.63;;
16262;SDS011;8239;48.594;8.598;2022-11-25T11:17:08;3.80;;;2.20;;
16262;SDS011;8239;48.594;8.598;2022-11-25T11:22:47;3.87;;;3.23;;
16262;SDS011;8239;48.594;8.598;2022-11-25T11:25:30;3.63;;;1.50;;
16262;SDS011;8239;48.594;8.598;2022-11-25T11:27:58;1.87;;;1.37;;
16262;SDS011;8239;48.594;8.598;2022-11-25T11:30:27;1.97;;;1.17;;
16262;SDS011;8239;48.594;8.598;2022-11-25T11:32:56;2.47;;;1.10;;
16262;SDS011;8239;48.594;8.598;2022-11-25T11:35:40;4.50;;;2.07;;
16262;SDS011;8239;48.594;8.598;2022-11-25T11:38:22;3.13;;;1.30;;
16262;SDS011;8239;48.594;8.598;2022-11-25T11:40:55;1.67;;;1.03;;
16262;SDS011;8239;48.594;8.598;2022-11-25T11:46:31;2.77;;;1.97;;
16262;SDS011;8239;48.594;8.598;2022-11-25T11:49:16;3.13;;;1.67;;
16262;SDS011;8239;48.594;8.598;2022-11-25T11:52:01;2.03;;;1.20;;
16262;SDS011;8239;48.594;8.598;2022-11-25T11:54:37;2.13;;;1.70;;
16262;SDS011;8239;48.594;8.598;2022-11-25T11:57:11;2.43;;;2.00;;
16262;SDS011;8239;48.594;8.598;2022-11-25T11:59:47;1.43;;;1.30;;
16262;SDS011;8239;48.594;8.598;2022-11-25T12:02:29;3.07;;;2.10;;
16262;SDS011;8239;48.594;8.598;2022-11-25T12:05:05;2.23;;;1.93;;
16262;SDS011;8239;48.594;8.598;2022-11-25T12:07:42;1.53;;;1.00;;
16262;SDS011;8239;48.594;8.598;2022-11-25T12:10:17;3.63;;;2.87;;
16262;SDS011;8239;48.594;8.598;2022-11-25T12:12:50;2.67;;;1.30;;
16262;SDS011;8239;48.594;8.598;2022-11-25T12:15:23;1.47;;;0.97;;
16262;SDS011;8239;48.594;8.598;2022-11-25T12:18:01;1.80;;;0.90;;
16262;SDS011;8239;48.594;8.598;2022-11-25T12:20:35;1.20;;;0.70;;
16262;SDS011;8239;48.594;8.598;2022-11-25T12:23:11;1.20;;;0.80;;
16262;SDS011;8239;48.594;8.598;2022-11-25T12:25:46;2.13;;;0.70;;
16262;SDS011;8239;48.594;8.598;2022-11-25T12:28:17;0.70;;;0.70;;
16262;SDS011;8239;48.594;8.598;2022-11-25T12:30:55;2.23;;;0.90;;
16262;SDS011;8239;48.594;8.598;2022-11-25T12:33:35;2.03;;;1.93;;
16262;SDS011;8239;48.594;8.598;2022-11-25T12:36:09;1.97;;;1.10;;
16262;SDS011;8239;48.594;8.598;2022-11-25T12:38:42;0.70;;;0.60;;
16262;SDS011;8239;48.594;8.598;2022-11-25T12:41:16;19.00;;;16.07;;
16262;SDS011;8239;48.594;8.598;2022-11-25T12:43:50;0.77;;;0.77;;
16262;SDS011;8239;48.594;8.598;2022-11-25T12:46:24;1.97;;;0.90;;
16262;SDS011;8239;48.594;8.598;2022-11-25T12:48:58;2.73;;;0.60;;
16262;SDS011;8239;48.594;8.598;2022-11-25T12:51:31;0.90;;;0.60;;
16262;SDS011;8239;48.594;8.598;2022-11-25T12:54:12;0.63;;;0.63;;
16262;SDS011;8239;48.594;8.598;2022-11-25T12:57:10;0.80;;;0.80;;
16262;SDS011;8239;48.594;8.598;2022-11-25T13:00:00;2.03;;;0.87;;
16262;SDS011;8239;48.594;8.598;2022-11-25T13:02:42;1.60;;;1.10;;
16262;SDS011;8239;48.594;8.598;2022-11-25T13:05:28;1.40;;;0.90;;
16262;SDS011;8239;48.594;8.598;2022-11-25T13:08:22;1.40;;;1.30;;
16262;SDS011;8239;48.594;8.598;2022-11-25T13:11:11;1.47;;;1.10;;
16262;SDS011;8239;48.594;8.598;2022-11-25T13:13:54;3.93;;;3.60;;
16262;SDS011;8239;48.594;8.598;2022-11-25T13:16:28;2.23;;;1.43;;
16262;SDS011;8239;48.594;8.598;2022-11-25T13:18:56;2.13;;;1.23;;
16262;SDS011;8239;48.594;8.598;2022-11-25T13:21:23;24.88;;;22.23;;
16262;SDS011;8239;48.594;8.598;2022-11-25T13:23:53;2.10;;;1.10;;
16262;SDS011;8239;48.594;8.598;2022-11-25T13:26:34;1.95;;;1.05;;
16262;SDS011;8239;48.594;8.598;2022-11-25T13:32:31;2.05;;;1.00;;
16262;SDS011;8239;48.594;8.598;2022-11-25T13:41:03;3.88;;;1.40;;
16262;SDS011;8239;48.594;8.598;2022-11-25T13:43:56;4.53;;;1.45;;
16262;SDS011;8239;48.594;8.598;2022-11-25T13:46:26;4.10;;;1.38;;
16262;SDS011;8239;48.594;8.598;2022-11-25T13:48:57;3.38;;;1.23;;
16262;SDS011;8239;48.594;8.598;2022-11-25T13:51:24;2.83;;;1.40;;
16262;SDS011;8239;48.594;8.598;2022-11-25T13:53:52;3.72;;;1.45;;
16262;SDS011;8239;48.594;8.598;2022-11-25T13:56:24;3.08;;;1.35;;
16262;SDS011;8239;48.594;8.598;2022-11-25T14:01:54;3.05;;;1.25;;
16262;SDS011;8239;48.594;8.598;2022-11-25T14:04:58;4.07;;;1.30;;
16262;SDS011;8239;48.594;8.598;2022-11-25T14:07:32;4.18;;;1.52;;
16262;SDS011;8239;48.594;8.598;2022-11-25T14:10:10;6.57;;;1.80;;
16262;SDS011;8239;48.594;8.598;2022-11-25T14:13:10;6.35;;;2.33;;
16262;SDS011;8239;48.594;8.598;2022-11-25T14:15:58;5.50;;;1.90;;
16262;SDS011;8239;48.594;8.598;2022-11-25T14:18:39;5.50;;;1.70;;
16262;SDS011;8239;48.594;8.598;2022-11-25T14:21:23;6.03;;;1.73;;
16262;SDS011;8239;48.594;8.598;2022-11-25T14:24:10;4.72;;;1.38;;
16262;SDS011;8239;48.594;8.598;2022-11-25T14:26:50;6.35;;;1.50;;
16262;SDS011;8239;48.594;8.598;2022-11-25T14:29:19;4.40;;;1.50;;
16262;SDS011;8239;48.594;8.598;2022-11-25T14:31:52;5.55;;;2.80;;
16262;SDS011;8239;48.594;8.598;2022-11-25T14:34:25;5.85;;;1.80;;
16262;SDS011;8239;48.594;8.598;2022-11-25T14:36:59;4.63;;;1.85;;
16262;SDS011;8239;48.594;8.598;2022-11-25T14:39:31;4.85;;;2.10;;
16262;SDS011;8239;48.594;8.598;2022-11-25T14:42:04;3.92;;;1.85;;
16262;SDS011;8239;48.594;8.598;2022-11-25T14:44:35;3.80;;;1.80;;
16262;SDS011;8239;48.594;8.598;2022-11-25T14:47:10;13.02;;;9.70;;
16262;SDS011;8239;48.594;8.598;2022-11-25T14:49:44;31.85;;;20.52;;
16262;SDS011;8239;48.594;8.598;2022-11-25T14:52:18;7.65;;;3.33;;
16262;SDS011;8239;48.594;8.598;2022-11-25T14:54:49;6.47;;;1.90;;
16262;SDS011;8239;48.594;8.598;2022-11-25T14:57:19;6.33;;;2.27;;
16262;SDS011;8239;48.594;8.598;2022-11-25T14:59:47;7.67;;;1.97;;
16262;SDS011;8239;48.594;8.598;2022-11-25T15:02:25;6.47;;;2.93;;
16262;SDS011;8239;48.594;8.598;2022-11-25T15:07:58;4.63;;;1.57;;
16262;SDS011;8239;48.594;8.598;2022-11-25T15:10:27;6.33;;;1.63;;
16262;SDS011;8239;48.594;8.598;2022-11-25T15:13:08;6.13;;;3.53;;
16262;SDS011;8239;48.594;8.598;2022-11-25T15:15:43;5.53;;;1.60;;
16262;SDS011;8239;48.594;8.598;2022-11-25T15:18:12;9.23;;;5.97;;
16262;SDS011;8239;48.594;8.598;2022-11-25T15:20:46;4.87;;;1.27;;
16262;SDS011;8239;48.594;8.598;2022-11-25T15:23:18;8.03;;;1.87;;
16262;SDS011;8239;48.594;8.598;2022-11-25T15:25:52;8.13;;;2.13;;
16262;SDS011;8239;48.594;8.598;2022-11-25T15:28:22;4.90;;;1.63;;
16262;SDS011;8239;48.594;8.598;2022-11-25T15:30:54;5.57;;;2.40;;
16262;SDS011;8239;48.594;8.598;2022-11-25T15:33:23;5.53;;;1.80;;
16262;SDS011;8239;48.594;8.598;2022-11-25T15:35:51;7.87;;;1.87;;
16262;SDS011;8239;48.594;8.598;2022-11-25T15:38:33;6.53;;;1.80;;
16262;SDS011;8239;48.594;8.598;2022-11-25T15:41:02;8.10;;;2.20;;
16262;SDS011;8239;48.594;8.598;2022-11-25T15:43:30;20.77;;;10.23;;
16262;SDS011;8239;48.594;8.598;2022-11-25T15:46:01;6.80;;;2.77;;
16262;SDS011;8239;48.594;8.598;2022-11-25T15:48:31;50.53;;;36.67;;